< < Back
Terminal Aerodrome Forecast


Current Version              Previous Versions:   1  2  3  4  5  6  7  8  9  

Terminal Aerodrome Forecast

596
FTUS44 KOHX 151200 AAA
TAFCSV
TAF AMD
KCSV 151259Z 1513/1612 00000KT 2SM BR OVC007
      TEMPO 1513/1514 1/4SM FG VV002
     FM151500 00000KT P6SM SCT007
     FM152300 26002KT P6SM BKN180
      TEMPO 1608/1612 2SM BR=

Latest METAR

114
SAUS70 KWBC 160100 RRC
MTRCSV
METAR KCSV 160053Z AUTO 00000KT 10SM CLR 19/17 A3017 RMK AO2 SLP202
T01940172


USA.gov is the U.S. government's official web portal to all federal, state and local government web resources and services.